createdAt,value
2018-02-08T00:01:14.394Z,27.73
2018-02-08T00:03:41.946Z,26.35
2018-02-08T00:06:09.545Z,27.23
2018-02-08T00:08:37.091Z,27.00
2018-02-08T00:11:04.620Z,26.77
2018-02-08T00:13:32.141Z,27.80
2018-02-08T00:15:59.698Z,26.37
2018-02-08T00:18:27.494Z,27.07
2018-02-08T00:20:55.204Z,28.53
2018-02-08T00:23:22.734Z,27.63
2018-02-08T00:25:50.267Z,25.60
2018-02-08T00:28:18.891Z,24.83
2018-02-08T00:30:46.542Z,25.83
2018-02-08T00:33:14.064Z,24.87
2018-02-08T00:35:41.743Z,26.48
2018-02-08T00:38:09.334Z,27.30
2018-02-08T00:40:36.954Z,26.37
2018-02-08T00:43:04.538Z,25.67
2018-02-08T00:45:32.077Z,26.87
2018-02-08T00:47:59.619Z,27.20
2018-02-08T00:50:27.150Z,25.30
2018-02-08T00:52:54.660Z,27.07
2018-02-08T00:55:22.175Z,27.50
2018-02-08T00:57:49.737Z,24.70
2018-02-08T01:00:17.321Z,25.40
2018-02-08T01:02:44.931Z,26.63
2018-02-08T01:05:12.508Z,26.90
2018-02-08T01:07:40.026Z,28.23
2018-02-08T01:10:07.549Z,26.53
2018-02-08T01:12:35.076Z,25.43
2018-02-08T01:15:02.591Z,25.52
2018-02-08T01:17:30.119Z,25.17
2018-02-08T01:19:57.656Z,27.17
2018-02-08T01:22:25.164Z,28.60
2018-02-08T01:24:52.683Z,26.90
2018-02-08T01:27:20.301Z,27.53
2018-02-08T01:29:47.891Z,25.57
2018-02-08T01:32:15.493Z,24.50
2018-02-08T01:34:43.009Z,28.13
2018-02-08T01:37:10.634Z,26.27
2018-02-08T01:39:39.088Z,25.23
2018-02-08T01:42:06.645Z,27.77
2018-02-08T01:44:34.250Z,27.20
2018-02-08T01:47:01.839Z,26.57
2018-02-08T01:49:41.275Z,27.40
2018-02-08T01:52:08.804Z,26.65
2018-02-08T01:54:36.387Z,26.90
2018-02-08T01:57:03.959Z,26.37
2018-02-08T01:59:31.484Z,26.07
2018-02-08T02:01:59.008Z,27.60
2018-02-08T02:04:26.544Z,25.53
2018-02-08T02:06:54.094Z,26.63
2018-02-08T02:09:21.684Z,28.50
2018-02-08T02:11:49.214Z,25.73
2018-02-08T02:14:16.760Z,27.13
2018-02-08T02:16:44.284Z,27.10
2018-02-08T02:19:11.798Z,27.03
2018-02-08T02:21:39.395Z,26.23
2018-02-08T02:24:06.962Z,27.25
2018-02-08T02:26:34.556Z,26.80
2018-02-08T02:29:02.134Z,27.60
2018-02-08T02:31:29.718Z,25.73
2018-02-08T02:33:57.301Z,26.57
2018-02-08T02:36:24.836Z,27.27
2018-02-08T02:38:52.369Z,30.33
2018-02-08T02:41:19.960Z,26.37
2018-02-08T02:43:47.615Z,26.80
2018-02-08T02:46:15.181Z,27.20
2018-02-08T02:48:42.760Z,27.77
2018-02-08T02:51:10.308Z,28.20
2018-02-08T02:53:37.949Z,27.33
2018-02-08T02:56:05.485Z,28.30
2018-02-08T02:58:34.049Z,28.10
2018-02-08T03:01:01.596Z,27.50
2018-02-08T03:03:29.214Z,27.70
2018-02-08T03:05:57.573Z,28.20
2018-02-08T03:08:25.094Z,27.40
2018-02-08T03:10:52.636Z,27.30
2018-02-08T03:13:20.151Z,28.17
2018-02-08T03:15:48.086Z,27.47
2018-02-08T03:18:15.618Z,27.30
2018-02-08T03:20:43.148Z,26.95
2018-02-08T03:23:10.759Z,28.97
2018-02-08T03:25:38.695Z,28.60
2018-02-08T03:28:06.235Z,28.87
2018-02-08T03:30:33.775Z,28.48
2018-02-08T03:33:01.294Z,28.40
2018-02-08T03:35:29.005Z,31.00
2018-02-08T03:37:56.565Z,28.60
2018-02-08T03:40:24.118Z,28.30
2018-02-08T03:42:51.666Z,27.83
2018-02-08T03:45:19.284Z,26.90
2018-02-08T03:47:46.800Z,27.57
2018-02-08T03:50:14.320Z,28.20
2018-02-08T03:52:41.953Z,28.73
2018-02-08T03:55:09.474Z,29.43
2018-02-08T03:57:37.025Z,28.10
2018-02-08T04:00:04.549Z,29.97
2018-02-08T04:02:32.134Z,31.20
2018-02-08T04:04:59.685Z,29.35
2018-02-08T04:07:27.241Z,29.73
2018-02-08T04:09:54.815Z,28.80
2018-02-08T04:12:22.574Z,29.55
2018-02-08T04:14:50.126Z,29.77
2018-02-08T04:17:17.738Z,29.50
2018-02-08T04:19:45.336Z,28.30
2018-02-08T04:22:12.859Z,30.13
2018-02-08T04:24:40.420Z,29.57
2018-02-08T04:27:07.939Z,30.00
2018-02-08T04:29:35.526Z,29.40
2018-02-08T04:32:03.050Z,31.37
2018-02-08T04:34:30.650Z,29.07
2018-02-08T04:36:58.198Z,27.33
2018-02-08T04:39:37.632Z,29.27
2018-02-08T04:42:17.010Z,30.20
2018-02-08T04:44:56.411Z,29.27
2018-02-08T04:47:27.918Z,30.77
2018-02-08T04:49:55.499Z,31.33
2018-02-08T04:52:23.081Z,31.43
2018-02-08T04:54:50.689Z,30.70
2018-02-08T04:57:18.212Z,31.63
2018-02-08T04:59:45.844Z,29.00
2018-02-08T05:02:14.216Z,29.60
2018-02-08T05:04:41.850Z,30.27
2018-02-08T05:07:09.454Z,31.80
2018-02-08T05:09:37.039Z,29.67
2018-02-08T05:12:04.577Z,31.07
2018-02-08T05:14:32.124Z,30.85
2018-02-08T05:16:59.637Z,29.50
2018-02-08T05:19:27.161Z,28.77
2018-02-08T05:21:54.800Z,29.10
2018-02-08T05:24:22.351Z,29.13
2018-02-08T05:26:49.900Z,29.77
2018-02-08T05:29:17.449Z,29.00
2018-02-08T05:31:44.965Z,29.05
2018-02-08T05:34:12.536Z,28.80
2018-02-08T05:36:40.085Z,30.67
2018-02-08T05:39:07.656Z,31.93
2018-02-08T05:41:35.170Z,33.60
2018-02-08T05:44:02.720Z,30.70
2018-02-08T05:46:30.255Z,32.03
2018-02-08T05:48:57.855Z,31.58
2018-02-08T05:51:31.671Z,32.57
2018-02-08T05:53:59.236Z,32.70
2018-02-08T05:56:26.885Z,34.70
2018-02-08T05:58:54.422Z,34.30
2018-02-08T06:01:21.945Z,33.90
2018-02-08T06:03:49.509Z,37.07
2018-02-08T06:06:17.191Z,34.00
2018-02-08T06:08:44.765Z,34.42
2018-02-08T06:11:15.781Z,36.97
2018-02-08T06:13:43.408Z,37.30
2018-02-08T06:16:11.001Z,38.03
2018-02-08T06:18:38.526Z,36.17
2018-02-08T06:21:06.099Z,36.20
2018-02-08T06:23:33.639Z,35.17
2018-02-08T06:26:01.240Z,34.37
2018-02-08T06:28:28.767Z,38.22
2018-02-08T06:30:56.541Z,38.87
2018-02-08T06:33:24.056Z,37.17
2018-02-08T06:35:56.401Z,38.10
2018-02-08T06:38:23.961Z,37.03
2018-02-08T06:40:51.489Z,37.30
2018-02-08T06:43:19.045Z,40.47
2018-02-08T06:45:47.746Z,41.20
2018-02-08T06:48:15.364Z,39.43
2018-02-08T06:50:42.910Z,41.60
2018-02-08T06:53:10.469Z,41.60
2018-02-08T06:55:37.993Z,40.40
2018-02-08T06:58:05.761Z,39.85
2018-02-08T07:00:33.269Z,41.63
2018-02-08T07:03:00.825Z,41.77
2018-02-08T07:05:28.438Z,41.47
2018-02-08T07:07:56.164Z,40.50
2018-02-08T07:10:23.704Z,39.97
2018-02-08T07:12:51.237Z,38.80
2018-02-08T07:15:19.305Z,40.30
2018-02-08T07:17:47.006Z,40.80
2018-02-08T07:20:14.536Z,40.93
2018-02-08T07:22:42.114Z,40.03
2018-02-08T07:25:09.665Z,42.00
2018-02-08T07:27:37.401Z,44.50
2018-02-08T07:30:05.066Z,47.60
2018-02-08T07:32:32.671Z,42.37
2018-02-08T07:35:00.196Z,42.17
2018-02-08T07:37:27.730Z,44.70
2018-02-08T07:39:55.261Z,43.10
2018-02-08T07:42:22.815Z,41.90
2018-02-08T07:44:50.345Z,42.40
2018-02-08T07:47:17.924Z,42.40
2018-02-08T07:49:45.521Z,43.83
2018-02-08T07:52:13.125Z,41.80
2018-02-08T07:54:40.678Z,42.60
2018-02-08T07:57:08.192Z,43.93
2018-02-08T07:59:35.735Z,43.87
2018-02-08T08:02:03.254Z,42.77
2018-02-08T08:04:30.809Z,42.10
2018-02-08T08:06:58.356Z,44.03
2018-02-08T08:09:25.995Z,44.40
2018-02-08T08:11:53.730Z,42.00
2018-02-08T08:14:21.259Z,43.58
2018-02-08T08:16:48.914Z,42.70
2018-02-08T08:19:16.424Z,42.07
2018-02-08T08:21:43.961Z,44.30
2018-02-08T08:24:11.706Z,44.13
2018-02-08T08:26:39.449Z,41.13
2018-02-08T08:29:07.164Z,41.28
2018-02-08T08:31:34.787Z,46.30
2018-02-08T08:34:02.501Z,46.78
2018-02-08T08:36:30.064Z,44.43
2018-02-08T08:38:58.057Z,46.27
2018-02-08T08:41:25.600Z,44.47
2018-02-08T08:43:53.139Z,45.50
2018-02-08T08:46:20.717Z,43.27
2018-02-08T08:48:48.250Z,43.60
2018-02-08T08:51:15.856Z,45.53
2018-02-08T08:53:43.361Z,43.47
2018-02-08T08:56:10.900Z,42.57
2018-02-08T08:58:38.520Z,44.93
2018-02-08T09:01:06.031Z,43.60
2018-02-08T09:03:33.689Z,43.00
2018-02-08T09:06:01.222Z,48.13
2018-02-08T09:08:28.992Z,41.93
2018-02-08T09:10:56.519Z,42.80
2018-02-08T09:13:24.066Z,44.10
2018-02-08T09:15:51.576Z,48.00
2018-02-08T09:18:19.100Z,43.40
2018-02-08T09:20:46.691Z,45.80
2018-02-08T09:23:14.216Z,47.60
2018-02-08T09:25:41.799Z,50.00
2018-02-08T09:28:09.311Z,47.83
2018-02-08T09:30:36.896Z,47.38
2018-02-08T09:33:04.420Z,44.80
2018-02-08T09:35:31.990Z,42.70
2018-02-08T09:37:59.670Z,42.63
2018-02-08T09:40:27.186Z,49.70
2018-02-08T09:42:54.794Z,48.80
2018-02-08T09:45:22.341Z,44.83
2018-02-08T09:47:50.435Z,41.80
2018-02-08T09:50:17.966Z,43.28
2018-02-08T09:52:45.713Z,41.83
2018-02-08T09:55:13.239Z,41.77
2018-02-08T09:57:40.756Z,43.00
2018-02-08T10:00:08.306Z,43.60
2018-02-08T10:02:35.880Z,43.80
2018-02-08T10:05:03.425Z,44.90
2018-02-08T10:07:31.179Z,45.97
2018-02-08T10:09:58.862Z,47.73
2018-02-08T10:12:26.461Z,46.73
2018-02-08T10:14:54.001Z,45.67
2018-02-08T10:17:21.514Z,45.67
2018-02-08T10:19:49.105Z,44.70
2018-02-08T10:22:16.646Z,45.10
2018-02-08T10:24:44.351Z,45.80
2018-02-08T10:27:11.870Z,45.20
2018-02-08T10:29:39.582Z,43.80
2018-02-08T10:32:07.181Z,44.03
2018-02-08T10:34:34.691Z,45.37
2018-02-08T10:37:02.261Z,44.58
2018-02-08T10:39:29.783Z,45.00
2018-02-08T10:41:57.325Z,44.30
2018-02-08T10:44:24.925Z,44.13
2018-02-08T10:46:52.466Z,44.33
2018-02-08T10:49:20.009Z,45.20
2018-02-08T10:51:47.604Z,42.97
2018-02-08T10:54:15.136Z,46.50
2018-02-08T10:56:42.670Z,44.93
2018-02-08T10:59:10.430Z,46.03
2018-02-08T11:01:37.989Z,46.53
2018-02-08T11:04:05.653Z,45.90
2018-02-08T11:06:33.190Z,43.80
2018-02-08T11:09:00.740Z,45.20
2018-02-08T11:11:28.263Z,46.13
2018-02-08T11:13:55.799Z,45.20
2018-02-08T11:16:23.325Z,49.00
2018-02-08T11:18:50.866Z,45.77
2018-02-08T11:21:18.601Z,45.83
2018-02-08T11:23:46.370Z,45.83
2018-02-08T11:26:13.889Z,44.30
2018-02-08T11:28:41.434Z,44.20
2018-02-08T11:31:09.059Z,45.00
2018-02-08T11:33:36.655Z,44.87
2018-02-08T11:36:04.345Z,44.83
2018-02-08T11:38:31.876Z,46.10
2018-02-08T11:41:07.651Z,46.03
2018-02-08T11:43:35.416Z,43.20
2018-02-08T11:46:03.081Z,45.13
2018-02-08T11:48:30.626Z,45.70
2018-02-08T11:50:58.229Z,43.80
2018-02-08T11:53:25.808Z,47.50
2018-02-08T11:55:53.451Z,44.20
2018-02-08T11:58:21.046Z,45.97
2018-02-08T12:00:49.429Z,43.17
2018-02-08T12:03:16.981Z,44.40
2018-02-08T12:05:44.630Z,46.20
2018-02-08T12:08:12.204Z,46.87
2018-02-08T12:10:39.714Z,49.93
2018-02-08T12:13:07.239Z,46.63
2018-02-08T12:15:34.816Z,45.23
2018-02-08T12:18:02.350Z,45.70
2018-02-08T12:20:29.971Z,44.47
2018-02-08T12:22:57.617Z,46.27
2018-02-08T12:25:25.177Z,46.07
2018-02-08T12:27:52.714Z,45.22
2018-02-08T12:30:20.324Z,47.13
2018-02-08T12:32:47.860Z,42.62
2018-02-08T12:35:15.550Z,42.40
2018-02-08T12:37:43.190Z,46.37
2018-02-08T12:40:10.713Z,46.77
2018-02-08T12:42:38.320Z,45.57
2018-02-08T12:45:06.045Z,46.30
2018-02-08T12:47:33.565Z,44.27
2018-02-08T12:50:01.125Z,45.77
2018-02-08T12:52:28.790Z,44.87
2018-02-08T12:54:56.338Z,44.63
2018-02-08T12:57:23.874Z,44.10
2018-02-08T12:59:51.433Z,45.63
2018-02-08T13:02:19.054Z,45.97
2018-02-08T13:04:46.821Z,49.50
2018-02-08T13:07:14.521Z,45.37
2018-02-08T13:09:42.929Z,46.25
2018-02-08T13:12:10.504Z,46.50
2018-02-08T13:14:38.046Z,46.23
2018-02-08T13:17:05.565Z,46.10
2018-02-08T13:19:33.090Z,47.77
2018-02-08T13:22:00.705Z,46.10
2018-02-08T13:24:28.301Z,46.20
2018-02-08T13:26:55.850Z,47.60
2018-02-08T13:29:23.476Z,46.77
2018-02-08T13:31:55.768Z,47.07
2018-02-08T13:34:23.291Z,47.13
2018-02-08T13:36:50.901Z,46.10
2018-02-08T13:39:29.290Z,47.37
2018-02-08T13:41:57.195Z,64.80
2018-02-08T13:44:24.795Z,52.33
2018-02-08T13:46:52.360Z,47.00
2018-02-08T13:49:24.854Z,48.60
2018-02-08T13:54:59.224Z,50.20
2018-02-08T13:57:32.342Z,46.80
2018-02-08T14:00:03.303Z,48.60
2018-02-08T14:02:30.839Z,46.03
2018-02-08T14:04:58.454Z,46.20
2018-02-08T14:07:26.026Z,47.70
2018-02-08T14:09:53.550Z,47.50
2018-02-08T14:12:21.096Z,43.40
2018-02-08T14:14:48.774Z,48.17
2018-02-08T14:17:16.329Z,49.00
2018-02-08T14:19:43.919Z,46.67
2018-02-08T14:22:11.512Z,50.57
2018-02-08T14:24:39.219Z,50.13
2018-02-08T14:27:06.841Z,50.45
2018-02-08T14:29:34.396Z,48.80
2018-02-08T14:32:02.013Z,49.20
2018-02-08T14:34:30.389Z,47.20
2018-02-08T14:36:57.936Z,47.77
2018-02-08T14:39:25.476Z,47.38
2018-02-08T14:41:53.044Z,47.10
2018-02-08T14:44:20.590Z,46.83
2018-02-08T14:46:48.137Z,49.03
2018-02-08T14:49:15.697Z,50.37
2018-02-08T14:51:43.230Z,50.37
2018-02-08T14:54:10.816Z,51.33
2018-02-08T14:56:38.437Z,48.80
2018-02-08T14:59:06.009Z,48.57
2018-02-08T15:01:33.715Z,48.70
2018-02-08T15:04:01.260Z,48.70
2018-02-08T15:06:28.966Z,49.63
2018-02-08T15:08:56.635Z,47.83
2018-02-08T15:11:24.576Z,50.70
2018-02-08T15:13:52.302Z,49.60
2018-02-08T15:16:20.009Z,47.77
2018-02-08T15:18:47.622Z,49.07
2018-02-08T15:21:15.192Z,49.90
2018-02-08T15:23:42.802Z,50.37
2018-02-08T15:26:10.459Z,49.17
2018-02-08T15:28:37.985Z,48.22
2018-02-08T15:31:05.631Z,47.83
2018-02-08T15:33:33.225Z,48.93
2018-02-08T15:36:00.751Z,49.80
2018-02-08T15:38:28.270Z,52.80
2018-02-08T15:40:55.821Z,50.58
2018-02-08T15:43:23.350Z,50.30
2018-02-08T15:45:50.880Z,50.00
2018-02-08T15:48:18.496Z,52.73
2018-02-08T15:50:46.112Z,47.72
2018-02-08T15:53:13.705Z,51.13
2018-02-08T15:55:41.252Z,62.00
2018-02-08T15:58:08.922Z,57.50
2018-02-08T16:00:36.556Z,51.27
2018-02-08T16:03:04.211Z,55.33
2018-02-08T16:05:31.811Z,59.63
2018-02-08T16:07:59.401Z,53.87
2018-02-08T16:10:26.930Z,48.70
2018-02-08T16:12:54.461Z,50.47
2018-02-08T16:15:22.035Z,52.60
2018-02-08T16:17:49.596Z,53.40
2018-02-08T16:20:17.151Z,50.90
2018-02-08T16:22:44.766Z,48.97
2018-02-08T16:25:12.335Z,50.57
2018-02-08T16:27:39.957Z,48.90
2018-02-08T16:30:07.515Z,47.33
2018-02-08T16:32:35.120Z,49.37
2018-02-08T16:38:56.829Z,50.07
2018-02-08T16:41:24.407Z,49.60
2018-02-08T16:43:52.027Z,49.23
2018-02-08T16:46:19.605Z,47.80
2018-02-08T16:48:47.125Z,47.87
2018-02-08T16:51:14.651Z,47.00
2018-02-08T16:53:42.241Z,45.20
2018-02-08T16:56:09.945Z,45.28
2018-02-08T16:58:37.477Z,66.73
2018-02-08T17:01:05.167Z,48.00
2018-02-08T17:03:32.870Z,45.53
2018-02-08T17:06:00.426Z,47.70
2018-02-08T17:08:28.078Z,43.70
2018-02-08T17:10:55.661Z,45.80
2018-02-08T17:13:23.590Z,44.73
2018-02-08T17:15:51.169Z,43.33
2018-02-08T17:18:18.680Z,47.97
2018-02-08T17:20:46.316Z,46.07
2018-02-08T17:23:13.854Z,47.15
2018-02-08T17:25:41.460Z,45.40
2018-02-08T17:28:08.991Z,48.90
2018-02-08T17:30:36.542Z,44.80
2018-02-08T17:33:04.180Z,46.13
2018-02-08T17:35:31.822Z,45.50
2018-02-08T17:37:59.353Z,46.37
2018-02-08T17:40:26.895Z,45.77
2018-02-08T17:42:54.530Z,45.92
2018-02-08T17:45:22.141Z,45.20
2018-02-08T17:47:49.670Z,43.97
2018-02-08T17:50:17.219Z,44.17
2018-02-08T17:52:44.764Z,43.17
2018-02-08T17:55:12.289Z,46.90
2018-02-08T17:57:39.968Z,45.93
2018-02-08T18:00:07.682Z,48.10
2018-02-08T18:02:35.314Z,45.93
2018-02-08T18:05:03.197Z,45.00
2018-02-08T18:07:30.786Z,46.73
2018-02-08T18:09:58.356Z,46.92
2018-02-08T18:12:26.021Z,46.30
2018-02-08T18:14:53.653Z,48.50
2018-02-08T18:17:21.220Z,47.47
2018-02-08T18:19:48.856Z,48.47
2018-02-08T18:22:16.626Z,46.63
2018-02-08T18:24:44.295Z,46.57
2018-02-08T18:27:11.927Z,46.00
2018-02-08T18:29:39.546Z,45.10
2018-02-08T18:32:07.270Z,47.97
2018-02-08T18:34:34.908Z,49.30
2018-02-08T18:37:02.539Z,49.10
2018-02-08T18:39:30.107Z,47.87
2018-02-08T18:41:57.777Z,48.40
2018-02-08T18:44:25.377Z,47.93
2018-02-08T18:46:52.978Z,47.67
2018-02-08T18:49:20.839Z,46.83
2018-02-08T18:51:48.487Z,45.83
2018-02-08T18:54:16.176Z,48.93
2018-02-08T18:56:43.831Z,46.10
2018-02-08T18:59:11.377Z,45.20
2018-02-08T19:01:38.959Z,48.30
2018-02-08T19:04:06.518Z,46.30
2018-02-08T19:06:34.373Z,47.00
2018-02-08T19:09:01.911Z,48.17
2018-02-08T19:11:29.460Z,48.80
2018-02-08T19:13:57.130Z,48.50
2018-02-08T19:16:25.514Z,49.95
2018-02-08T19:18:53.045Z,49.60
2018-02-08T19:21:20.635Z,47.00
2018-02-08T19:23:48.306Z,50.10
2018-02-08T19:26:15.846Z,49.23
2018-02-08T19:28:43.512Z,49.47
2018-02-08T19:31:11.107Z,45.13
2018-02-08T19:33:38.665Z,46.97
2018-02-08T19:36:06.210Z,47.60
2018-02-08T19:38:33.992Z,45.85
2018-02-08T19:41:02.166Z,46.70
2018-02-08T19:43:30.639Z,46.05
2018-02-08T19:45:58.379Z,49.20
2018-02-08T19:48:25.996Z,52.23
2018-02-08T19:50:53.686Z,49.20
2018-02-08T19:53:21.400Z,46.13
2018-02-08T19:55:50.051Z,49.03
2018-02-08T19:58:17.700Z,48.97
2018-02-08T20:00:45.440Z,50.27
2018-02-08T20:03:13.104Z,49.37
2018-02-08T20:05:40.760Z,51.27
2018-02-08T20:08:08.394Z,51.13
2018-02-08T20:10:35.958Z,48.30
2018-02-08T20:13:03.615Z,48.30
2018-02-08T20:15:40.680Z,49.73
2018-02-08T20:18:08.251Z,50.28
2018-02-08T20:20:35.821Z,47.13
2018-02-08T20:23:03.487Z,49.17
2018-02-08T20:25:36.554Z,50.13
2018-02-08T20:28:04.134Z,47.03
2018-02-08T20:30:31.768Z,47.60
2018-02-08T20:32:59.440Z,49.20
2018-02-08T20:35:27.010Z,46.63
2018-02-08T20:37:54.725Z,49.05
2018-02-08T20:40:22.300Z,47.03
2018-02-08T20:42:55.649Z,50.27
2018-02-08T20:45:23.182Z,49.80
2018-02-08T20:47:50.756Z,45.22
2018-02-08T20:50:18.404Z,48.00
2018-02-08T20:52:46.130Z,47.27
2018-02-08T20:55:13.789Z,49.40
2018-02-08T20:57:41.415Z,52.00
2018-02-08T21:00:09.100Z,49.73
2018-02-08T21:02:36.656Z,48.17
2018-02-08T21:05:04.431Z,46.83
2018-02-08T21:07:32.255Z,45.00
2018-02-08T21:09:59.792Z,45.95
2018-02-08T21:12:27.355Z,46.30
2018-02-08T21:14:54.912Z,44.70
2018-02-08T21:17:22.551Z,46.53
2018-02-08T21:19:50.426Z,47.67
2018-02-08T21:22:17.990Z,44.83
2018-02-08T21:24:45.626Z,46.23
2018-02-08T21:27:13.213Z,52.00
2018-02-08T21:29:40.920Z,47.63
2018-02-08T21:32:08.465Z,47.57
2018-02-08T21:34:36.192Z,44.47
2018-02-08T21:37:03.867Z,47.27
2018-02-08T21:39:31.711Z,46.70
2018-02-08T21:41:59.270Z,48.60
2018-02-08T21:44:26.882Z,48.27
2018-02-08T21:46:54.520Z,49.07
2018-02-08T21:49:22.130Z,48.87
2018-02-08T21:51:49.887Z,47.00
2018-02-08T21:54:17.556Z,49.67
2018-02-08T21:56:45.189Z,47.00
2018-02-08T21:59:12.815Z,48.67
2018-02-08T22:01:40.394Z,46.90
2018-02-08T22:04:07.945Z,48.65
2018-02-08T22:06:35.487Z,47.77
2018-02-08T22:09:03.030Z,46.97
2018-02-08T22:11:30.666Z,49.10
2018-02-08T22:13:58.211Z,47.60
2018-02-08T22:16:25.781Z,48.17
2018-02-08T22:18:53.328Z,49.83
2018-02-08T22:21:20.939Z,47.53
2018-02-08T22:23:48.487Z,47.50
2018-02-08T22:26:16.026Z,50.20
2018-02-08T22:28:43.667Z,46.67
2018-02-08T22:31:11.240Z,47.62
2018-02-08T22:33:38.836Z,51.70
2018-02-08T22:36:06.375Z,47.60
2018-02-08T22:38:34.366Z,49.33
2018-02-08T22:41:01.975Z,48.60
2018-02-08T22:43:29.510Z,48.47
2018-02-08T22:45:57.066Z,48.70
2018-02-08T22:48:24.780Z,50.47
2018-02-08T22:50:52.495Z,49.23
2018-02-08T22:53:20.037Z,50.88
2018-02-08T22:55:48.518Z,50.07
2018-02-08T22:58:16.143Z,52.27
2018-02-08T23:00:43.764Z,50.33
2018-02-08T23:03:11.315Z,52.57
2018-02-08T23:05:38.901Z,47.00
2018-02-08T23:08:06.649Z,48.47
2018-02-08T23:10:34.202Z,49.87
2018-02-08T23:13:01.737Z,50.07
2018-02-08T23:15:29.396Z,49.72
2018-02-08T23:17:57.012Z,48.00
2018-02-08T23:20:24.637Z,47.47
2018-02-08T23:22:52.292Z,47.88
2018-02-08T23:25:19.825Z,51.30
2018-02-08T23:27:47.516Z,51.87
2018-02-08T23:30:15.040Z,49.50
2018-02-08T23:32:42.654Z,50.10
2018-02-08T23:35:10.191Z,48.77
2018-02-08T23:37:37.938Z,52.47
2018-02-08T23:40:05.476Z,50.03
2018-02-08T23:42:33.050Z,50.40
2018-02-08T23:45:00.694Z,51.63
2018-02-08T23:47:28.262Z,52.00
2018-02-08T23:49:55.795Z,52.07
2018-02-08T23:52:23.340Z,49.97
2018-02-08T23:54:50.887Z,48.47
2018-02-08T23:57:18.425Z,52.67
2018-02-08T23:59:46.031Z,52.40
